Time;durP1;ratioP1;P1;durP2;ratioP2;P2;SDS_P1;SDS_P2;PMS_P1;PMS_P2;Temp;Humidity;BMP_temperature;BMP_pressure;BME280_temperature;BME280_humidity;BME280_pressure;Samples;Min_cycle;Max_cycle;Signal;HPM_P1;HPM_P2
2022/12/22 03:28:05;;;;;;;;;5.50;3.00;;;;;13.56;70.97;100180.28;5062306;28;45319;-52
2022/12/22 03:30:30;;;;;;;;;4.00;2.50;;;;;13.56;70.79;100177.63;5062339;28;46218;-51
2022/12/22 03:32:56;;;;;;;;;6.00;4.00;;;;;13.54;70.82;100175.06;5062365;28;45481;-52
2022/12/22 03:35:21;;;;;;;;;8.00;2.75;;;;;13.52;70.90;100192.75;5062513;28;45326;-52
2022/12/22 03:37:46;;;;;;;;;7.25;1.25;;;;;13.48;71.24;100204.31;5062515;28;45475;-48
2022/12/22 03:40:12;;;;;;;;;6.50;5.00;;;;;13.48;70.63;100199.03;5061820;27;46351;-50
2022/12/22 03:48:05;;;;;;;;;7.75;3.75;;;;;13.46;71.09;100199.09;5062239;28;45255;-51
2022/12/22 03:50:30;;;;;;;;;5.00;3.00;;;;;13.47;70.49;100234.25;5061803;28;46152;-52
2022/12/22 03:52:56;;;;;;;;;8.25;3.25;;;;;13.47;70.53;100221.06;5061994;28;45371;-51
2022/12/22 03:55:21;;;;;;;;;3.50;2.00;;;;;13.47;70.72;100215.78;5061571;28;45438;-50
2022/12/22 03:57:46;;;;;;;;;6.00;3.00;;;;;13.52;70.75;100229.69;5061545;28;45442;-48
2022/12/22 04:00:12;;;;;;;;;7.00;4.00;;;;;13.51;70.16;100225.34;5061724;28;45323;-49
2022/12/22 04:02:38;;;;;;;;;5.75;5.00;;;;;13.47;70.24;100218.41;5062065;28;45362;-51
2022/12/22 04:05:03;;;;;;;;;10.25;4.00;;;;;13.52;70.38;100218.25;5061938;28;45280;-51
2022/12/22 04:07:29;;;;;;;;;5.75;4.00;;;;;13.50;70.45;100205.13;5077671;28;45385;-50
2022/12/22 04:12:53;;;;;;;;;6.25;4.00;;;;;13.48;70.01;100222.78;5061832;28;45350;-52
2022/12/22 04:15:18;;;;;;;;;2.25;2.25;;;;;13.42;70.15;100223.00;5061954;28;45306;-54
2022/12/22 04:17:44;;;;;;;;;3.75;2.00;;;;;13.41;70.49;100210.69;5061666;28;45604;-54
2022/12/22 04:20:09;;;;;;;;;7.25;3.50;;;;;13.43;70.13;100224.72;5077376;28;45921;-53
2022/12/22 04:22:35;;;;;;;;;8.75;3.00;;;;;13.42;69.97;100212.44;5061690;28;45220;-51
2022/12/22 04:25:00;;;;;;;;;4.50;2.00;;;;;13.35;69.83;100232.88;5061821;28;45432;-51
2022/12/22 04:27:25;;;;;;;;;3.25;2.00;;;;;13.36;70.07;100233.72;5061363;28;45556;-52
2022/12/22 04:29:51;;;;;;;;;6.75;4.50;;;;;13.38;69.86;100247.78;5061784;28;45326;-53
2022/12/22 04:32:16;;;;;;;;;8.25;3.75;;;;;13.30;70.10;100240.09;5061549;28;45235;-52
2022/12/22 04:34:41;;;;;;;;;5.00;2.00;;;;;13.28;69.98;100271.81;5061874;28;45275;-53
2022/12/22 04:37:07;;;;;;;;;6.00;2.00;;;;;13.27;69.86;100256.88;5061448;28;45343;-53
2022/12/22 04:39:32;;;;;;;;;3.00;3.00;;;;;13.30;69.77;100262.03;5061923;27;45399;-53
2022/12/22 04:41:57;;;;;;;;;9.00;4.25;;;;;13.33;69.96;100280.44;5061279;28;45209;-52
2022/12/22 04:44:23;;;;;;;;;8.25;3.50;;;;;13.32;70.17;100299.81;5061594;28;45384;-53
2022/12/22 04:46:48;;;;;;;;;2.00;1.00;;;;;13.33;69.87;100305.94;5061363;28;45327;-52
2022/12/22 04:49:13;;;;;;;;;2.00;1.00;;;;;13.31;69.70;100291.94;5061219;28;46255;-53
2022/12/22 04:51:39;;;;;;;;;4.00;2.75;;;;;13.30;69.97;100298.13;5060950;28;45232;-53
2022/12/22 04:54:04;;;;;;;;;6.75;0.00;;;;;13.26;69.99;100304.44;5061737;28;45359;-52
2022/12/22 04:56:29;;;;;;;;;6.00;2.50;;;;;13.31;69.40;100335.03;5060827;28;45295;-53
2022/12/22 04:58:55;;;;;;;;;2.00;2.00;;;;;13.28;69.61;100327.22;5061205;28;45579;-52
2022/12/22 05:01:20;;;;;;;;;2.75;1.50;;;;;13.29;69.49;100331.56;5061047;28;45382;-50
2022/12/22 05:03:46;;;;;;;;;6.75;2.00;;;;;13.27;69.49;100341.31;5061342;28;45224;-53
2022/12/22 05:06:12;;;;;;;;;3.25;2.00;;;;;13.21;69.52;100346.78;5061050;28;45349;-53
2022/12/22 05:08:38;;;;;;;;;3.75;1.75;;;;;13.32;69.71;100352.59;5060980;28;45605;-53
2022/12/22 05:11:04;;;;;;;;;1.00;1.00;;;;;13.30;69.51;100359.69;5060482;28;45317;-53
2022/12/22 05:13:30;;;;;;;;;2.75;0.25;;;;;13.32;69.08;100373.69;5061160;28;46425;-53
2022/12/22 05:16:02;;;;;;;;;2.75;2.00;;;;;13.32;69.70;100394.81;5060839;28;45457;-50
2022/12/22 05:18:28;;;;;;;;;1.00;1.00;;;;;13.33;69.12;100362.25;5060628;28;46410;-53
2022/12/22 05:20:53;;;;;;;;;0.75;0.50;;;;;13.35;68.79;100393.00;5060629;28;45384;-52
2022/12/22 05:23:18;;;;;;;;;2.00;1.00;;;;;13.38;68.97;100390.28;5060968;28;45355;-53
2022/12/22 05:25:44;;;;;;;;;2.75;1.00;;;;;13.36;68.85;100392.06;5060442;28;45245;-54
2022/12/22 05:28:09;;;;;;;;;4.25;1.00;;;;;13.33;68.80;100386.00;5062642;28;47110;-50
2022/12/22 05:30:34;;;;;;;;;3.50;0.50;;;;;13.36;69.11;100385.03;5060743;28;45161;-54
2022/12/22 05:33:00;;;;;;;;;1.00;1.00;;;;;13.35;68.65;100390.38;5060861;28;45378;-53
2022/12/22 05:35:25;;;;;;;;;1.25;0.25;;;;;13.36;68.92;100392.06;5060630;28;45232;-53
2022/12/22 05:37:50;;;;;;;;;2.00;2.00;;;;;13.24;68.23;100386.25;5060499;28;45388;-54
2022/12/22 05:40:16;;;;;;;;;1.00;1.00;;;;;13.33;68.94;100399.19;5060066;28;45311;-53
2022/12/22 05:42:41;;;;;;;;;0.00;0.00;;;;;13.35;68.54;100404.41;5060686;28;45419;-53
2022/12/22 05:45:16;;;;;;;;;1.00;1.00;;;;;13.35;68.82;100409.69;5075960;28;45334;-53
2022/12/22 05:47:43;;;;;;;;;1.75;0.75;;;;;13.31;68.34;100415.97;5060528;28;46145;-54
2022/12/22 05:50:10;;;;;;;;;1.00;1.00;;;;;13.33;68.48;100419.41;5060295;28;45401;-53
2022/12/22 05:52:36;;;;;;;;;2.00;0.00;;;;;13.36;68.43;100423.72;5075978;28;45458;-51
2022/12/22 05:55:02;;;;;;;;;1.00;0.00;;;;;13.35;68.60;100428.16;5059928;28;45246;-54
2022/12/22 05:57:27;;;;;;;;;0.75;0.00;;;;;13.34;68.35;100431.69;5075705;28;47953;-54
2022/12/22 05:59:52;;;;;;;;;0.00;0.00;;;;;13.35;68.28;100440.50;5060172;28;45209;-51
2022/12/22 06:02:18;;;;;;;;;0.50;0.00;;;;;13.33;68.80;100441.41;5060364;28;45292;-53
2022/12/22 06:04:43;;;;;;;;;2.00;1.00;;;;;13.29;68.82;100438.91;5075749;28;45514;-51
2022/12/22 06:07:09;;;;;;;;;1.00;0.00;;;;;13.32;69.01;100437.03;5060254;28;45195;-54
2022/12/22 06:09:34;;;;;;;;;0.00;0.00;;;;;13.29;69.27;100445.03;5075727;28;45352;-51
2022/12/22 06:11:59;;;;;;;;;0.00;0.00;;;;;13.27;68.92;100440.72;5060296;28;45222;-53
2022/12/22 06:14:25;;;;;;;;;0.25;0.25;;;;;13.25;69.03;100451.31;5060048;28;45229;-54
2022/12/22 06:16:50;;;;;;;;;0.00;0.00;;;;;13.20;69.36;100455.88;5060298;28;45210;-53
2022/12/22 06:19:15;;;;;;;;;0.00;0.00;;;;;13.16;69.62;100465.66;5059188;28;45338;-51
2022/12/22 06:21:41;;;;;;;;;2.00;1.00;;;;;13.16;69.80;100480.63;5060436;28;45376;-54
2022/12/22 06:24:06;;;;;;;;;0.00;0.00;;;;;13.11;69.61;100483.38;5075764;27;45264;-54
2022/12/22 06:26:31;;;;;;;;;0.00;0.00;;;;;13.08;69.73;100486.13;5059660;28;46262;-52
2022/12/22 06:28:57;;;;;;;;;0.00;0.00;;;;;13.06;69.51;100473.88;5059851;28;45287;-53
2022/12/22 06:31:22;;;;;;;;;1.25;1.00;;;;;13.09;69.84;100476.44;5060293;28;45266;-52
2022/12/22 06:33:48;;;;;;;;;1.00;1.00;;;;;13.03;69.86;100476.59;5059707;28;45358;-53
2022/12/22 06:36:13;;;;;;;;;3.75;3.00;;;;;13.01;69.74;100482.78;5059949;28;45404;-52
2022/12/22 06:38:39;;;;;;;;;5.00;1.75;;;;;13.03;69.73;100487.16;5059629;28;45284;-52
2022/12/22 06:41:04;;;;;;;;;13.00;8.50;;;;;13.01;70.22;100490.69;5059504;28;45387;-53
2022/12/22 06:43:30;;;;;;;;;10.00;4.00;;;;;12.98;70.29;100489.91;5075244;28;45458;-53
2022/12/22 06:45:55;;;;;;;;;8.00;5.25;;;;;12.88;70.03;100497.25;5059686;28;46178;-52
2022/12/22 06:48:21;;;;;;;;;11.00;5.75;;;;;12.89;70.38;100514.75;5059505;28;45272;-53
2022/12/22 06:50:46;;;;;;;;;9.25;5.75;;;;;12.91;70.56;100512.09;5059933;28;45468;-52
2022/12/22 06:53:11;;;;;;;;;11.50;7.00;;;;;12.86;69.96;100514.88;5059391;28;45596;-54
2022/12/22 06:55:37;;;;;;;;;8.25;5.00;;;;;12.79;70.49;100530.00;5059328;28;45587;-50
2022/12/22 06:58:03;;;;;;;;;8.00;5.75;;;;;12.82;70.80;100535.16;5059256;27;45250;-53
2022/12/22 07:00:29;;;;;;;;;18.75;8.50;;;;;12.77;70.87;100541.50;5059689;28;45271;-53
2022/12/22 07:02:54;;;;;;;;;9.00;5.00;;;;;12.80;70.29;100554.56;5059225;28;45438;-53
2022/12/22 07:05:20;;;;;;;;;10.75;5.00;;;;;12.73;70.57;100547.72;5059596;28;45555;-51
2022/12/22 07:07:46;;;;;;;;;9.25;5.00;;;;;12.68;70.73;100543.44;5075102;28;45442;-53
2022/12/22 07:10:12;;;;;;;;;7.75;5.25;;;;;12.67;70.77;100539.06;5059318;28;45284;-52
2022/12/22 07:12:37;;;;;;;;;5.50;4.00;;;;;12.64;70.87;100543.56;5059163;28;45421;-51
2022/12/22 07:15:03;;;;;;;;;11.25;5.75;;;;;12.65;70.84;100548.81;5059634;27;46045;-53
2022/12/22 07:17:28;;;;;;;;;12.25;7.25;;;;;12.65;70.79;100556.72;5074977;27;45423;-52
2022/12/22 07:19:54;;;;;;;;;15.50;7.25;;;;;12.63;70.81;100555.88;5059560;28;45288;-52
2022/12/22 07:22:19;;;;;;;;;10.00;6.75;;;;;12.64;70.65;100560.25;5059313;28;45332;-51
2022/12/22 07:24:45;;;;;;;;;15.75;7.00;;;;;12.63;70.57;100571.69;5058910;28;45310;-52
2022/12/22 07:27:10;;;;;;;;;5.50;4.00;;;;;12.63;70.72;100579.63;5058828;28;45245;-53
2022/12/22 07:29:35;;;;;;;;;16.75;9.00;;;;;12.59;70.57;100577.97;5059501;28;45293;-50
2022/12/22 07:32:01;;;;;;;;;10.50;7.75;;;;;12.58;70.96;100580.63;5076441;28;45239;-52
2022/12/22 07:34:27;;;;;;;;;20.75;10.25;;;;;12.60;71.16;100581.47;5062779;28;45314;-53
2022/12/22 07:36:52;;;;;;;;;12.25;7.50;;;;;12.61;70.76;100581.41;5062268;28;45272;-52
2022/12/22 07:39:18;;;;;;;;;10.50;1.00;;;;;12.63;70.86;100584.03;5062448;28;45255;-53
2022/12/22 07:44:27;;;;;;;;;10.00;6.00;;;;;12.59;70.87;100582.34;5062380;28;45333;-54
2022/12/22 07:46:52;;;;;;;;;11.75;8.25;;;;;12.60;71.01;100592.88;5062010;28;45356;-53
2022/12/22 07:52:01;;;;;;;;;10.50;5.75;;;;;12.59;70.92;100579.72;5061921;28;45438;-52
2022/12/22 07:54:27;;;;;;;;;14.50;8.75;;;;;12.62;71.04;100588.41;5061841;28;46244;-50
2022/12/22 07:56:53;;;;;;;;;11.75;8.75;;;;;12.58;70.70;100585.88;5061922;28;45227;-53
2022/12/22 07:59:19;;;;;;;;;11.25;7.50;;;;;12.61;70.81;100585.84;5077814;28;45321;-53
2022/12/22 08:01:44;;;;;;;;;13.75;9.00;;;;;12.59;70.64;100579.72;5061876;28;45516;-48
2022/12/22 08:04:11;;;;;;;;;8.00;7.00;;;;;12.61;70.70;100583.19;5061869;28;46077;-52
2022/12/22 08:06:37;;;;;;;;;8.00;7.00;;;;;12.66;70.59;100592.69;5061904;28;45525;-52
2022/12/22 08:09:04;;;;;;;;;13.00;9.00;;;;;12.67;70.79;100589.16;5062044;28;45346;-52
2022/12/22 08:11:29;;;;;;;;;11.75;9.25;;;;;12.73;70.99;100608.38;5061343;28;45529;-52
2022/12/22 08:13:55;;;;;;;;;14.50;13.25;;;;;12.68;70.48;100590.06;5061658;28;46355;-53
2022/12/22 08:16:21;;;;;;;;;16.25;7.25;;;;;12.75;70.47;100603.94;5061798;28;45409;-52
2022/12/22 08:18:46;;;;;;;;;14.75;9.00;;;;;12.74;70.67;100607.47;5061956;28;45169;-52
2022/12/22 08:21:12;;;;;;;;;10.50;7.50;;;;;12.71;70.23;100612.84;5061352;28;45477;-53
2022/12/22 08:23:38;;;;;;;;;19.00;10.25;;;;;12.74;70.63;100616.25;5061674;28;45422;-52
2022/12/22 08:26:23;;;;;;;;;12.25;10.00;;;;;12.71;70.28;100610.19;5060869;28;45390;-52
2022/12/22 08:28:58;;;;;;;;;5.00;5.00;;;;;12.71;70.64;100604.94;5055180;28;45437;-53
2022/12/22 08:31:25;;;;;;;;;13.00;7.75;;;;;12.72;70.13;100618.06;5076933;28;46111;-52
2022/12/22 08:33:53;;;;;;;;;16.25;10.50;;;;;12.72;70.71;100622.47;5077045;27;46721;-52
2022/12/22 08:36:19;;;;;;;;;9.75;6.00;;;;;12.76;70.16;100617.06;5077129;28;45346;-50
2022/12/22 08:38:44;;;;;;;;;12.25;8.25;;;;;12.74;70.46;100629.44;5061390;28;45251;-50
2022/12/22 08:41:14;;;;;;;;;14.00;8.00;;;;;12.77;70.60;100626.72;5077030;27;45424;-52
2022/12/22 08:43:39;;;;;;;;;12.75;10.50;;;;;12.76;70.12;100629.41;5060545;28;47390;-51
2022/12/22 08:46:04;;;;;;;;;17.50;12.00;;;;;12.76;69.99;100618.84;5076783;27;45255;-53
2022/12/22 08:48:30;;;;;;;;;18.50;10.00;;;;;12.74;70.18;100607.47;5060217;28;45288;-52
2022/12/22 08:50:55;;;;;;;;;13.75;10.50;;;;;12.71;69.76;100612.84;5076862;28;45610;-53
2022/12/22 08:53:21;;;;;;;;;11.75;8.00;;;;;12.78;70.12;100609.13;5060719;28;46256;-53
2022/12/22 08:55:53;;;;;;;;;13.25;11.50;;;;;12.83;69.97;100604.63;5061534;27;45338;-52
2022/12/22 08:58:19;;;;;;;;;21.75;12.50;;;;;12.78;69.88;100606.47;5060995;28;45161;-50
2022/12/22 09:00:44;;;;;;;;;19.50;11.00;;;;;12.76;70.49;100608.31;5061012;28;45449;-51
2022/12/22 09:03:10;;;;;;;;;13.00;8.00;;;;;12.78;70.09;100598.56;5060620;28;46479;-52
2022/12/22 09:05:37;;;;;;;;;18.75;12.75;;;;;12.84;69.98;100606.31;5059815;28;46043;-53
2022/12/22 09:08:05;;;;;;;;;16.50;9.00;;;;;12.86;70.07;100615.06;5061046;28;45421;-53
2022/12/22 09:10:31;;;;;;;;;12.25;8.25;;;;;12.87;70.19;100605.38;5060897;28;45405;-52
2022/12/22 09:12:57;;;;;;;;;18.25;11.25;;;;;12.86;70.04;100609.81;5060402;28;45244;-52
2022/12/22 09:15:22;;;;;;;;;15.75;9.50;;;;;12.84;70.31;100608.97;5076642;28;45272;-52
2022/12/22 09:17:48;;;;;;;;;21.25;13.25;;;;;12.86;69.90;100607.16;5060854;28;45220;-52
2022/12/22 09:20:13;;;;;;;;;22.25;11.00;;;;;12.91;70.33;100605.28;5060720;28;45231;-51
2022/12/22 09:22:39;;;;;;;;;21.00;12.75;;;;;12.93;70.16;100608.75;5042701;28;46852;-53
2022/12/22 09:25:05;;;;;;;;;12.25;11.25;;;;;12.91;69.86;100612.34;5059789;28;45221;-50
2022/12/22 09:27:30;;;;;;;;;18.00;10.00;;;;;12.95;69.91;100622.72;5076107;28;45205;-52
2022/12/22 09:29:56;;;;;;;;;16.50;12.00;;;;;12.98;69.88;100619.16;5060741;28;45359;-51
2022/12/22 09:32:21;;;;;;;;;14.00;10.25;;;;;13.00;70.10;100620.88;5060492;28;46312;-53
2022/12/22 09:34:47;;;;;;;;;17.50;11.00;;;;;12.94;69.92;100614.88;5060646;28;45402;-52
2022/12/22 09:37:16;;;;;;;;;21.50;10.75;;;;;12.98;70.36;100609.50;5060684;28;45449;-52
2022/12/22 09:39:41;;;;;;;;;17.50;12.00;;;;;13.07;70.13;100612.78;5060311;28;45481;-53
2022/12/22 09:42:18;;;;;;;;;12.25;10.75;;;;;13.05;69.92;100614.59;5060133;28;46210;-52
2022/12/22 09:44:45;;;;;;;;;13.00;10.50;;;;;13.06;69.88;100611.91;5060548;28;45332;-51
2022/12/22 09:47:26;;;;;;;;;12.00;6.75;;;;;13.10;69.97;100623.25;5076038;28;45343;-52
2022/12/22 09:49:54;;;;;;;;;26.50;14.25;;;;;13.14;70.07;100633.69;5060176;28;45399;-52
2022/12/22 09:52:41;;;;;;;;;13.25;8.75;;;;;13.16;70.24;100636.28;5060092;28;46265;-51
2022/12/22 09:55:30;;;;;;;;;16.00;10.50;;;;;13.21;69.80;100642.31;5058927;28;45406;-53
2022/12/22 09:57:56;;;;;;;;;20.25;12.75;;;;;13.25;70.11;100635.19;5060287;28;45485;-51
2022/12/22 10:00:27;;;;;;;;;14.50;7.25;;;;;13.30;69.68;100642.03;5060181;28;45141;-50
2022/12/22 10:03:26;;;;;;;;;15.00;8.00;;;;;13.35;69.60;100643.72;5060007;28;45526;-51
2022/12/22 10:06:23;;;;;;;;;17.50;10.25;;;;;13.37;69.98;100624.31;5049132;28;45356;-50
2022/12/22 10:08:49;;;;;;;;;15.00;11.25;;;;;13.33;69.82;100628.78;5060264;27;45216;-53
2022/12/22 10:11:17;;;;;;;;;13.75;8.75;;;;;13.37;69.65;100626.03;5059681;28;45251;-52
2022/12/22 10:13:44;;;;;;;;;14.00;11.00;;;;;13.36;69.75;100625.19;5060001;28;46514;-53
2022/12/22 10:16:19;;;;;;;;;16.75;8.50;;;;;13.39;70.01;100622.50;5059858;28;45249;-53
2022/12/22 10:19:05;;;;;;;;;15.00;10.00;;;;;13.32;69.60;100613.84;5059908;28;45295;-53
2022/12/22 10:21:30;;;;;;;;;17.00;11.75;;;;;13.29;69.68;100621.84;5075435;28;45823;-53
2022/12/22 10:23:55;;;;;;;;;18.75;12.25;;;;;13.31;69.79;100627.94;5059813;28;45612;-53
2022/12/22 10:26:25;;;;;;;;;16.50;8.75;;;;;13.45;69.99;100626.75;5059589;28;45371;-53
2022/12/22 10:28:58;;;;;;;;;12.25;7.50;;;;;13.45;70.03;100617.03;5060102;28;45244;-55
2022/12/22 10:31:27;;;;;;;;;18.50;11.25;;;;;13.53;69.90;100624.75;5059626;28;45525;-52
2022/12/22 10:33:55;;;;;;;;;14.25;7.50;;;;;13.56;69.45;100626.44;5059567;28;46414;-54
2022/12/22 10:36:29;;;;;;;;;20.00;13.00;;;;;13.58;69.22;100628.09;5059961;28;45323;-51
2022/12/22 10:39:01;;;;;;;;;15.25;10.00;;;;;13.63;69.56;100622.72;5059767;28;45439;-53
2022/12/22 10:41:34;;;;;;;;;22.00;10.00;;;;;13.67;69.24;100618.22;5075042;28;45507;-52
2022/12/22 10:44:14;;;;;;;;;15.00;9.00;;;;;13.72;69.15;100637.41;5059452;28;45204;-54
2022/12/22 10:46:45;;;;;;;;;15.00;11.75;;;;;13.74;69.25;100625.06;5059716;28;45327;-54
2022/12/22 10:49:28;;;;;;;;;11.75;7.00;;;;;13.75;69.25;100617.06;5059846;28;45523;-53
2022/12/22 10:52:09;;;;;;;;;14.50;11.75;;;;;13.79;69.50;100631.06;5060042;27;45239;-53
2022/12/22 10:54:35;;;;;;;;;15.00;8.75;;;;;13.82;69.81;100630.97;5059247;28;45322;-53
2022/12/22 10:57:23;;;;;;;;;16.25;10.25;;;;;13.87;69.25;100625.53;5059223;28;45418;-52
2022/12/22 10:59:53;;;;;;;;;13.00;10.00;;;;;13.84;69.38;100615.94;5059216;28;45299;-53
2022/12/22 11:02:33;;;;;;;;;7.50;2.25;;;;;13.88;69.20;100600.88;5059482;28;45330;-54
2022/12/22 11:05:10;;;;;;;;;25.25;11.25;;;;;13.80;69.44;100619.59;5075116;27;45438;-54
2022/12/22 11:07:38;;;;;;;;;18.25;9.50;;;;;13.81;69.06;100623.94;5062916;28;45256;-52
2022/12/22 11:10:30;;;;;;;;;22.50;11.00;;;;;13.87;69.26;100626.41;5062575;28;45435;-51
2022/12/22 11:13:01;;;;;;;;;20.75;10.50;;;;;13.90;69.23;100620.16;5026104;28;45224;-51
2022/12/22 11:15:51;;;;;;;;;14.00;11.00;;;;;13.94;68.79;100617.38;5062645;28;46186;-54
2022/12/22 11:18:37;;;;;;;;;15.75;11.25;;;;;13.81;69.52;100616.91;5062784;28;45355;-52
2022/12/22 11:21:20;;;;;;;;;14.25;9.50;;;;;13.93;69.45;100625.38;5078172;28;45491;-53
2022/12/22 11:23:46;;;;;;;;;12.50;8.75;;;;;13.94;69.04;100609.47;5062604;28;45602;-52
2022/12/22 11:26:14;;;;;;;;;17.00;8.00;;;;;13.95;68.88;100607.72;5076998;28;46767;-52
2022/12/22 11:29:11;;;;;;;;;15.25;9.00;;;;;13.91;69.37;100606.03;5062614;28;45300;-52
2022/12/22 11:31:52;;;;;;;;;19.00;12.50;;;;;13.97;69.27;100604.09;5062578;28;45469;-54
2022/12/22 11:34:31;;;;;;;;;17.75;10.00;;;;;14.02;68.76;100603.94;5062228;28;45714;-53
2022/12/22 11:37:18;;;;;;;;;17.50;11.00;;;;;13.97;68.60;100595.28;5062367;28;45370;-54
2022/12/22 11:40:32;;;;;;;;;14.25;9.25;;;;;13.98;68.82;100594.38;5062043;28;45240;-51
2022/12/22 11:43:22;;;;;;;;;18.50;11.25;;;;;14.07;69.09;100598.53;5057272;28;45307;-51
2022/12/22 11:45:58;;;;;;;;;21.25;12.75;;;;;14.08;68.43;100606.41;5062262;28;45324;-57
2022/12/22 11:49:07;;;;;;;;;13.25;11.00;;;;;14.05;68.42;100600.34;5062237;28;45422;-52
2022/12/22 11:51:47;;;;;;;;;17.25;11.00;;;;;14.06;68.43;100589.75;5025563;28;45190;-53
2022/12/22 11:54:39;;;;;;;;;17.25;12.75;;;;;14.06;68.57;100592.38;5062142;28;45606;-52
2022/12/22 11:57:23;;;;;;;;;15.00;11.75;;;;;14.07;68.45;100585.31;5061826;28;45232;-53
2022/12/22 12:00:09;;;;;;;;;17.75;13.25;;;;;14.11;68.97;100592.22;5061450;27;46259;-52
2022/12/22 12:02:43;;;;;;;;;16.00;13.00;;;;;14.11;68.45;100581.66;5061692;28;45299;-57
2022/12/22 12:05:45;;;;;;;;;16.50;12.00;;;;;14.10;68.76;100572.00;5061713;28;45510;-54
2022/12/22 12:08:16;;;;;;;;;16.50;12.25;;;;;14.14;68.35;100565.72;5061987;28;45367;-53
2022/12/22 12:11:00;;;;;;;;;17.25;12.00;;;;;14.15;68.63;100578.03;5061609;28;46352;-54
2022/12/22 12:13:49;;;;;;;;;15.25;9.00;;;;;14.12;68.43;100576.34;5062033;28;45415;-54
2022/12/22 12:16:44;;;;;;;;;14.50;9.25;;;;;14.17;68.16;100570.03;5056028;28;45481;-53
2022/12/22 12:19:21;;;;;;;;;19.50;11.75;;;;;14.18;68.10;100558.56;5061510;28;45457;-54
2022/12/22 12:22:09;;;;;;;;;22.00;10.00;;;;;14.19;68.11;100562.91;5061533;28;45447;-52
2022/12/22 12:25:00;;;;;;;;;17.25;9.00;;;;;14.20;68.46;100554.94;5061203;28;45266;-54
2022/12/22 12:27:38;;;;;;;;;17.75;10.75;;;;;14.20;68.47;100554.94;5061394;28;45348;-52
2022/12/22 12:30:12;;;;;;;;;14.00;10.00;;;;;14.18;68.13;100546.19;5061662;28;45244;-53
2022/12/22 12:32:51;;;;;;;;;14.75;9.00;;;;;14.20;68.54;100546.16;5061263;28;47510;-53
2022/12/22 12:35:48;;;;;;;;;13.75;9.25;;;;;14.20;68.47;100544.38;5061329;28;45415;-53
2022/12/22 12:38:29;;;;;;;;;15.25;7.75;;;;;14.17;68.31;100530.41;5077256;28;45347;-52
2022/12/22 12:41:06;;;;;;;;;15.75;10.75;;;;;14.17;67.90;100535.69;5060894;28;45468;-54
2022/12/22 12:43:33;;;;;;;;;17.25;11.50;;;;;14.20;68.12;100532.94;5061189;28;46174;-53
2022/12/22 12:45:58;;;;;;;;;14.75;11.25;;;;;14.19;68.10;100521.50;5076902;28;45354;-54
2022/12/22 12:48:23;;;;;;;;;19.50;11.00;;;;;14.15;68.50;100517.25;5061289;28;45322;-54
2022/12/22 12:51:12;;;;;;;;;16.75;6.75;;;;;14.19;67.90;100516.22;5061314;28;45306;-54
2022/12/22 12:54:16;;;;;;;;;13.50;12.00;;;;;14.19;67.90;100505.66;5025607;28;46117;-54
2022/12/22 12:56:59;;;;;;;;;16.25;11.50;;;;;14.19;68.09;100508.28;5060857;28;45213;-53
2022/12/22 12:59:39;;;;;;;;;16.00;10.75;;;;;14.19;68.33;100500.38;5061107;28;45363;-53
2022/12/22 13:02:33;;;;;;;;;15.75;10.00;;;;;14.18;68.02;100498.63;5061140;28;45320;-51
2022/12/22 13:05:11;;;;;;;;;20.50;11.00;;;;;14.17;68.19;100496.91;5056477;28;45225;-53
2022/12/22 13:08:05;;;;;;;;;16.75;9.25;;;;;14.16;68.31;100481.94;5060973;28;45498;-54
2022/12/22 13:10:32;;;;;;;;;11.75;8.50;;;;;14.09;68.21;100491.88;5060822;28;45314;-53
2022/12/22 13:12:57;;;;;;;;;11.50;8.25;;;;;14.10;68.03;100479.50;5060728;28;45383;-54
2022/12/22 13:15:27;;;;;;;;;16.25;9.00;;;;;14.11;68.25;100481.25;5060704;28;46069;-54
2022/12/22 13:17:53;;;;;;;;;10.75;9.25;;;;;14.06;68.29;100473.50;5060828;28;45207;-53
2022/12/22 13:20:31;;;;;;;;;10.50;10.25;;;;;14.02;69.03;100471.84;5060840;28;45394;-54
2022/12/22 13:22:59;;;;;;;;;13.75;6.00;;;;;14.03;68.71;100472.72;5060819;28;45544;-54
2022/12/22 13:25:53;;;;;;;;;6.75;0.00;;;;;14.04;68.19;100471.81;5048118;28;45264;-55
2022/12/22 13:28:22;;;;;;;;;13.50;9.50;;;;;13.98;69.24;100463.16;5057178;28;45314;-54
2022/12/22 13:30:49;;;;;;;;;21.00;9.75;;;;;13.89;69.05;100460.81;5060617;28;45228;-54
2022/12/22 13:33:22;;;;;;;;;16.50;9.75;;;;;13.91;68.74;100464.28;5076271;28;45967;-54
2022/12/22 13:35:49;;;;;;;;;22.25;11.00;;;;;13.87;68.99;100465.28;5060398;28;45523;-53
2022/12/22 13:38:25;;;;;;;;;15.75;9.75;;;;;13.86;69.11;100458.28;5060536;28;45318;-54
2022/12/22 13:40:50;;;;;;;;;16.25;8.75;;;;;13.82;69.01;100454.00;5075715;28;45434;-52
2022/12/22 13:43:19;;;;;;;;;14.75;9.25;;;;;13.78;69.06;100452.38;5076039;28;45722;-52
2022/12/22 13:45:56;;;;;;;;;19.00;11.50;;;;;13.76;69.23;100459.47;5060334;28;46365;-53
2022/12/22 13:48:31;;;;;;;;;12.50;8.00;;;;;13.73;69.25;100443.75;5060382;28;45178;-54
2022/12/22 13:51:00;;;;;;;;;4.25;2.50;;;;;13.72;69.77;100442.91;5060654;28;45257;-52
2022/12/22 13:53:37;;;;;;;;;21.25;11.00;;;;;13.62;69.48;100434.41;5059972;28;45240;-54
2022/12/22 13:56:11;;;;;;;;;15.75;11.25;;;;;13.65;69.79;100436.91;5059719;28;45331;-52
2022/12/22 13:58:40;;;;;;;;;15.25;11.25;;;;;13.64;69.31;100413.22;5059960;28;45352;-52
2022/12/22 14:01:08;;;;;;;;;17.00;10.25;;;;;13.59;69.68;100437.13;5060116;28;45442;-53
2022/12/22 14:03:34;;;;;;;;;19.75;13.50;;;;;13.62;70.41;100423.84;5060125;28;45612;-53
2022/12/22 14:06:00;;;;;;;;;18.75;11.00;;;;;13.55;69.58;100424.09;5059983;28;45252;-54
2022/12/22 14:08:25;;;;;;;;;14.25;7.25;;;;;13.49;69.47;100406.66;5060009;28;45225;-53
2022/12/22 14:10:53;;;;;;;;;9.75;8.00;;;;;13.49;70.21;100422.47;5059933;28;45285;-52
2022/12/22 14:13:26;;;;;;;;;18.50;13.00;;;;;13.49;70.12;100414.56;5060063;28;45492;-52
2022/12/22 14:16:04;;;;;;;;;12.25;9.25;;;;;13.39;70.42;100407.84;5059841;28;46228;-52
2022/12/22 14:18:31;;;;;;;;;14.25;9.25;;;;;13.46;70.03;100422.59;5059988;28;45387;-51
2022/12/22 14:20:58;;;;;;;;;18.00;10.25;;;;;13.40;70.36;100404.31;5060035;28;45454;-51
2022/12/22 14:23:31;;;;;;;;;14.75;9.75;;;;;13.37;70.29;100400.00;5059843;28;45289;-53
2022/12/22 14:25:58;;;;;;;;;16.75;11.00;;;;;13.36;70.42;100403.50;5059010;28;46039;-53
2022/12/22 14:28:29;;;;;;;;;14.00;10.00;;;;;13.32;70.52;100396.59;5059678;28;45375;-53
2022/12/22 14:30:59;;;;;;;;;15.25;9.75;;;;;13.31;69.80;100389.59;5059827;28;45312;-52
2022/12/22 14:33:29;;;;;;;;;17.00;9.25;;;;;13.30;70.45;100387.84;5059603;28;45638;-53
2022/12/22 14:36:15;;;;;;;;;11.50;11.00;;;;;13.31;70.46;100390.44;5059535;28;46001;-53
2022/12/22 14:38:43;;;;;;;;;12.75;12.00;;;;;13.32;70.40;100397.44;5059392;28;45395;-50
2022/12/22 14:41:40;;;;;;;;;17.00;11.00;;;;;13.31;70.32;100394.88;5061527;28;45387;-50
2022/12/22 14:44:12;;;;;;;;;22.75;13.00;;;;;13.27;70.58;100394.09;5061977;28;45265;-53
2022/12/22 14:46:37;;;;;;;;;17.75;11.25;;;;;13.24;70.47;100372.22;5062974;28;46999;-52
2022/12/22 14:49:02;;;;;;;;;16.25;10.50;;;;;13.17;70.45;100368.91;5063371;28;45410;-51
2022/12/22 14:51:28;;;;;;;;;18.25;10.00;;;;;13.20;71.01;100362.66;5063051;28;45173;-52
2022/12/22 14:53:57;;;;;;;;;15.25;10.00;;;;;13.21;70.85;100348.56;5078810;28;45695;-52
2022/12/22 14:56:25;;;;;;;;;15.25;8.50;;;;;13.14;70.99;100335.56;5078601;28;48406;-50
2022/12/22 14:58:50;;;;;;;;;15.50;10.25;;;;;13.13;71.16;100333.84;5063251;28;46137;-52
2022/12/22 15:01:27;;;;;;;;;14.25;10.50;;;;;13.05;70.48;100338.47;5062794;28;45237;-52
2022/12/22 15:04:16;;;;;;;;;14.00;11.75;;;;;13.07;70.73;100323.47;5063177;28;45446;-50
2022/12/22 15:06:48;;;;;;;;;15.00;8.75;;;;;13.00;70.49;100335.13;5042736;28;45537;-51
2022/12/22 15:09:14;;;;;;;;;12.75;10.00;;;;;12.97;71.11;100309.72;5078520;28;45309;-52
2022/12/22 15:11:39;;;;;;;;;11.75;9.75;;;;;12.92;70.47;100303.72;5062864;28;45315;-52
2022/12/22 15:14:12;;;;;;;;;14.50;10.50;;;;;12.88;70.88;100296.81;5062776;28;45642;-53